Stem, North Carolina
Current Conditions -  °F | °C
As of 7:35 AM on Saturday 01 Nov 2014 (Local Time) from KHNZ Reporting Station
Light Rain Light Rain  
Wind Chill: 38°   Ceiling: 3600
Heat Index: 43°   Visibility: 7mi
Dew Point: 41°   Wind: 8mph
Humidity: 93%   Direction: 340°NNW
Pressure: 29.76"   Gusts: NA
Location:  36.2°N, 78.72°W
Report Text: KHNZ 011135Z AUTO 34007KT 7SM -RA OVC036 06/05 A2976 RMK AO2 P0006 T00610050
Loading
Personal Weather Stations






























Interactive Weather Map
Tropical Storm Tracking
New forecast layout! Learn more

10-Day Weather Forecast

Advertisements
Track Severe Weather on mobile